Time;durP1;ratioP1;P1;durP2;ratioP2;P2;SDS_P1;SDS_P2;PMS_P1;PMS_P2;Temp;Humidity;BMP_temperature;BMP_pressure;BME280_temperature;BME280_humidity;BME280_pressure;Samples;Min_cycle;Max_cycle;Signal;HPM_P1;HPM_P2
2023/12/05 00:01:45;;;;;;;17.23;12.63;;;0.70;99.90;;;;;;5011597;28;20029;-65
2023/12/05 00:04:11;;;;;;;17.88;12.75;;;0.70;99.90;;;;;;5021793;28;20577;-65
2023/12/05 00:06:37;;;;;;;18.38;12.25;;;0.70;99.90;;;;;;5015464;28;20265;-65
2023/12/05 00:09:03;;;;;;;17.48;12.30;;;0.70;99.90;;;;;;5014561;28;20033;-65
2023/12/05 00:11:29;;;;;;;14.80;11.00;;;0.70;99.90;;;;;;5013785;28;20681;-65
2023/12/05 00:13:55;;;;;;;15.55;11.73;;;0.70;99.90;;;;;;5013190;28;20116;-65
2023/12/05 00:16:20;;;;;;;16.80;12.38;;;0.70;99.90;;;;;;5015725;28;20093;-65
2023/12/05 00:18:49;;;;;;;16.52;11.93;;;0.70;99.90;;;;;;5006943;28;20855;-65
2023/12/05 00:21:16;;;;;;;17.20;12.05;;;0.80;99.90;;;;;;5016082;28;20583;-65
2023/12/05 00:23:41;;;;;;;17.63;12.05;;;0.70;99.90;;;;;;5013631;28;20057;-65
2023/12/05 00:26:07;;;;;;;15.88;12.13;;;0.70;99.90;;;;;;5013688;28;20482;-65
2023/12/05 00:28:32;;;;;;;16.70;12.07;;;0.70;99.90;;;;;;5005052;28;21381;-65
2023/12/05 00:30:58;;;;;;;16.67;10.93;;;0.70;99.90;;;;;;5005270;28;20049;-65
2023/12/05 00:33:24;;;;;;;16.73;12.07;;;0.70;99.90;;;;;;5014812;28;20055;-65
2023/12/05 00:35:49;;;;;;;17.70;12.40;;;0.80;99.90;;;;;;5013545;28;20464;-65
2023/12/05 00:38:15;;;;;;;14.68;10.75;;;0.70;99.90;;;;;;5012687;28;20107;-66
2023/12/05 00:40:40;;;;;;;18.00;12.38;;;0.80;99.90;;;;;;5010064;28;20045;-66
2023/12/05 00:43:06;;;;;;;20.05;13.93;;;0.70;99.90;;;;;;5016894;28;20045;-66
2023/12/05 00:45:31;;;;;;;18.65;12.70;;;0.70;99.90;;;;;;5009919;28;20666;-65
2023/12/05 00:47:57;;;;;;;19.00;13.25;;;0.60;99.90;;;;;;5017539;28;20037;-65
2023/12/05 00:50:23;;;;;;;16.30;11.55;;;0.60;99.90;;;;;;5013272;28;20021;-62
2023/12/05 00:52:48;;;;;;;18.08;12.18;;;0.60;99.90;;;;;;5016566;28;20041;-63
2023/12/05 00:55:14;;;;;;;16.67;12.30;;;0.50;99.90;;;;;;5013521;28;20154;-64
2023/12/05 00:57:40;;;;;;;15.95;12.43;;;0.50;99.90;;;;;;5017215;28;20506;-64
2023/12/05 01:00:09;;;;;;;18.20;12.50;;;0.60;99.90;;;;;;5018675;28;20033;-64
2023/12/05 01:02:35;;;;;;;22.20;16.65;;;0.50;99.90;;;;;;5014908;28;20037;-64
2023/12/05 01:05:02;;;;;;;18.85;12.50;;;0.50;99.90;;;;;;5012605;28;20048;-64
2023/12/05 01:07:28;;;;;;;20.90;13.88;;;0.50;99.90;;;;;;5007334;28;20082;-65
2023/12/05 01:09:53;;;;;;;21.20;13.07;;;0.40;99.90;;;;;;5006791;28;20037;-64
2023/12/05 01:12:19;;;;;;;15.85;12.02;;;0.40;99.90;;;;;;4999586;28;20033;-65
2023/12/05 01:14:44;;;;;;;19.83;12.75;;;0.50;99.90;;;;;;5006182;28;20118;-64
2023/12/05 01:17:10;;;;;;;19.67;13.77;;;0.40;99.90;;;;;;5010141;28;20034;-65
2023/12/05 01:19:37;;;;;;;17.00;12.02;;;0.40;99.90;;;;;;5008676;28;20033;-65
2023/12/05 01:22:03;;;;;;;16.83;11.93;;;0.40;99.90;;;;;;4998975;28;20045;-64
2023/12/05 01:24:29;;;;;;;17.15;12.15;;;0.50;99.90;;;;;;5008094;28;20025;-65
2023/12/05 01:26:54;;;;;;;16.02;12.23;;;0.50;99.90;;;;;;5007973;28;20521;-65
2023/12/05 01:29:20;;;;;;;17.98;11.63;;;0.60;99.90;;;;;;4999272;28;20384;-64
2023/12/05 01:31:46;;;;;;;16.23;11.75;;;0.50;99.90;;;;;;5008066;28;20034;-64
2023/12/05 01:34:11;;;;;;;17.73;12.05;;;0.50;99.90;;;;;;5019640;28;20116;-64
2023/12/05 01:36:37;;;;;;;16.65;11.27;;;0.40;99.90;;;;;;5009043;28;20026;-64
2023/12/05 01:39:03;;;;;;;17.08;11.70;;;0.30;99.90;;;;;;5008448;28;20034;-64
2023/12/05 01:41:28;;;;;;;18.52;12.65;;;0.20;99.90;;;;;;5006765;28;20095;-65
2023/12/05 01:43:54;;;;;;;16.00;11.50;;;0.20;99.90;;;;;;5005883;28;20512;-65
2023/12/05 01:46:20;;;;;;;16.02;11.73;;;0.20;99.90;;;;;;5006030;28;20514;-65
2023/12/05 01:48:47;;;;;;;17.05;12.55;;;0.10;99.90;;;;;;5007006;28;20083;-64
2023/12/05 01:51:14;;;;;;;20.05;13.20;;;0.10;99.90;;;;;;5005271;28;20026;-66
2023/12/05 01:53:42;;;;;;;19.17;13.45;;;0.20;99.90;;;;;;5007972;28;20047;-65
2023/12/05 01:56:10;;;;;;;21.10;14.50;;;0.10;99.90;;;;;;5001482;28;20034;-66
2023/12/05 01:58:37;;;;;;;16.63;12.63;;;0.10;99.90;;;;;;5005280;28;20033;-64
2023/12/05 02:01:04;;;;;;;20.88;15.07;;;0.10;99.90;;;;;;5002289;28;20052;-65
2023/12/05 02:03:31;;;;;;;17.60;12.68;;;0.10;99.90;;;;;;5003527;28;20211;-65
2023/12/05 02:05:57;;;;;;;16.10;12.02;;;0.00;99.90;;;;;;5007050;28;20026;-65
2023/12/05 02:08:29;;;;;;;18.50;13.40;;;0.00;99.90;;;;;;5003390;28;20041;-64
2023/12/05 02:10:55;;;;;;;20.45;13.90;;;-0.10;99.90;;;;;;5008759;28;20034;-64
2023/12/05 02:13:20;;;;;;;20.02;13.85;;;0.00;99.90;;;;;;5006867;28;20144;-65
2023/12/05 02:15:57;;;;;;;18.98;13.32;;;-0.10;99.90;;;;;;5003691;28;20030;-65
2023/12/05 02:18:29;;;;;;;19.15;14.13;;;-0.10;99.90;;;;;;5010273;28;20029;-64
2023/12/05 02:21:04;;;;;;;22.15;16.20;;;-0.10;99.90;;;;;;5007408;28;20552;-65
2023/12/05 02:23:52;;;;;;;24.23;17.73;;;-0.10;99.90;;;;;;5003319;28;20114;-64
2023/12/05 02:26:40;;;;;;;20.10;13.57;;;0.00;99.90;;;;;;5002833;28;20037;-65
2023/12/05 02:29:06;;;;;;;20.17;14.55;;;0.00;99.90;;;;;;5002880;28;20694;-65
2023/12/05 02:31:31;;;;;;;40.40;28.80;;;0.00;99.90;;;;;;5007137;28;20021;-65
2023/12/05 02:33:57;;;;;;;43.30;29.05;;;-0.10;99.90;;;;;;5005893;28;20048;-65
2023/12/05 02:36:32;;;;;;;26.05;17.45;;;0.00;99.90;;;;;;5004784;28;20038;-66
2023/12/05 02:39:12;;;;;;;20.95;15.88;;;0.00;99.90;;;;;;5001988;28;20034;-65
2023/12/05 02:41:43;;;;;;;19.05;14.18;;;0.00;99.90;;;;;;5004120;28;20035;-66
2023/12/05 02:44:12;;;;;;;19.33;13.52;;;0.00;99.90;;;;;;4994385;28;20593;-66
2023/12/05 02:46:40;;;;;;;30.33;20.95;;;-0.10;99.90;;;;;;5003413;28;20838;-66
2023/12/05 02:49:07;;;;;;;17.40;12.57;;;-0.10;99.90;;;;;;5001858;28;20240;-66
2023/12/05 02:51:33;;;;;;;16.75;12.55;;;-0.10;99.90;;;;;;5006642;28;20100;-66
2023/12/05 02:54:01;;;;;;;19.10;13.15;;;0.00;99.90;;;;;;5007545;28;20031;-66
2023/12/05 02:56:28;;;;;;;19.25;13.38;;;-0.10;99.90;;;;;;5008199;28;20025;-66
2023/12/05 02:58:54;;;;;;;17.60;13.15;;;-0.10;99.90;;;;;;5003656;28;20049;-66
2023/12/05 03:01:19;;;;;;;23.30;17.10;;;0.00;99.90;;;;;;5002603;28;20030;-66
2023/12/05 03:03:45;;;;;;;20.65;14.52;;;-0.10;99.90;;;;;;5003047;28;20071;-65
2023/12/05 03:06:11;;;;;;;18.17;13.13;;;-0.10;99.90;;;;;;5011068;28;20057;-66
2023/12/05 03:08:36;;;;;;;27.77;19.95;;;-0.10;99.90;;;;;;5004001;28;20107;-65
2023/12/05 03:11:02;;;;;;;25.25;17.25;;;-0.10;99.90;;;;;;5008975;28;20054;-66
2023/12/05 03:13:28;;;;;;;25.98;19.60;;;-0.10;99.90;;;;;;5011753;28;20109;-66
2023/12/05 03:15:53;;;;;;;26.65;17.00;;;-0.10;99.90;;;;;;5006454;28;20022;-65
2023/12/05 03:18:19;;;;;;;26.25;19.02;;;-0.10;99.90;;;;;;5009518;28;20041;-66
2023/12/05 03:20:44;;;;;;;27.13;18.17;;;0.00;99.90;;;;;;5014099;28;20026;-66
2023/12/05 03:23:10;;;;;;;39.38;27.88;;;0.00;99.90;;;;;;5004568;28;20041;-66
2023/12/05 03:25:35;;;;;;;24.08;17.73;;;0.00;99.90;;;;;;5011740;28;20044;-66
2023/12/05 03:28:01;;;;;;;20.88;14.60;;;0.00;99.90;;;;;;5010441;28;20121;-66
2023/12/05 03:30:27;;;;;;;21.30;14.75;;;0.00;99.90;;;;;;5010822;28;20033;-66
2023/12/05 03:32:52;;;;;;;20.48;13.82;;;0.00;99.90;;;;;;5025841;28;20068;-66
2023/12/05 03:35:18;;;;;;;24.05;16.98;;;0.00;99.90;;;;;;5006996;28;20033;-66
2023/12/05 03:37:43;;;;;;;22.17;14.68;;;0.10;99.90;;;;;;5006331;28;20041;-66
2023/12/05 03:40:09;;;;;;;20.25;14.93;;;0.00;99.90;;;;;;5005194;28;20040;-66
2023/12/05 03:42:35;;;;;;;21.80;15.57;;;0.00;99.90;;;;;;5009426;28;20178;-66
2023/12/05 03:45:01;;;;;;;22.10;14.38;;;-0.10;99.90;;;;;;5014373;28;20537;-66
2023/12/05 03:47:26;;;;;;;21.50;13.95;;;0.00;99.90;;;;;;5012348;28;20615;-66
2023/12/05 03:49:52;;;;;;;24.33;17.05;;;-0.10;99.90;;;;;;5013003;28;20026;-66
2023/12/05 03:52:18;;;;;;;21.48;14.05;;;0.00;99.90;;;;;;5012973;28;20115;-66
2023/12/05 03:54:43;;;;;;;36.95;24.02;;;-0.10;99.90;;;;;;5013672;28;20312;-66
2023/12/05 03:57:09;;;;;;;26.10;16.50;;;-0.10;99.90;;;;;;5008923;28;20025;-66
2023/12/05 03:59:34;;;;;;;27.52;21.38;;;-0.10;99.90;;;;;;5013067;28;20045;-66
2023/12/05 04:02:00;;;;;;;20.15;14.07;;;-0.10;99.90;;;;;;5013704;28;20117;-66
2023/12/05 04:04:25;;;;;;;19.73;14.85;;;-0.10;99.90;;;;;;5012416;28;20106;-66
2023/12/05 04:06:51;;;;;;;26.55;17.90;;;-0.10;99.90;;;;;;5012786;28;20069;-66
2023/12/05 04:09:17;;;;;;;25.75;17.77;;;-0.20;99.90;;;;;;5009063;28;20048;-66
2023/12/05 04:11:43;;;;;;;26.35;18.95;;;-0.10;99.90;;;;;;5012435;28;20021;-66
2023/12/05 04:14:08;;;;;;;30.88;21.35;;;0.00;99.90;;;;;;5010314;28;20068;-66
2023/12/05 04:16:34;;;;;;;27.08;16.75;;;0.00;99.90;;;;;;5013901;28;20167;-66
2023/12/05 04:19:00;;;;;;;30.42;19.35;;;0.00;99.90;;;;;;5013697;28;20022;-66
2023/12/05 04:21:26;;;;;;;26.67;18.50;;;-0.10;99.90;;;;;;5014787;28;20037;-66
2023/12/05 04:23:52;;;;;;;22.33;14.80;;;-0.10;99.90;;;;;;5011737;28;20121;-66
2023/12/05 04:26:18;;;;;;;24.42;17.05;;;-0.10;99.90;;;;;;5009226;28;20489;-66
2023/12/05 04:28:44;;;;;;;22.80;15.88;;;-0.10;99.90;;;;;;5015400;28;20686;-66
2023/12/05 04:31:11;;;;;;;24.02;15.95;;;0.00;99.90;;;;;;5014562;28;20034;-66
2023/12/05 04:33:39;;;;;;;26.95;16.88;;;-0.10;99.90;;;;;;5011878;28;20441;-66
2023/12/05 04:36:05;;;;;;;24.85;16.67;;;-0.10;99.90;;;;;;5015242;28;20034;-66
2023/12/05 04:38:31;;;;;;;35.08;18.90;;;-0.10;99.90;;;;;;5009444;28;20021;-66
2023/12/05 04:40:57;;;;;;;30.60;21.13;;;-0.10;99.90;;;;;;5015821;28;20057;-65
2023/12/05 04:43:22;;;;;;;23.60;16.80;;;0.00;99.90;;;;;;5010559;28;20026;-66
2023/12/05 04:45:48;;;;;;;24.02;15.98;;;0.00;99.90;;;;;;5016533;28;20204;-66
2023/12/05 04:48:13;;;;;;;24.13;15.15;;;0.00;99.90;;;;;;5012546;28;20045;-66
2023/12/05 04:50:39;;;;;;;25.42;17.05;;;0.10;99.90;;;;;;5012696;28;20116;-66
2023/12/05 04:53:04;;;;;;;23.73;15.95;;;0.00;99.90;;;;;;5010202;28;20478;-66
2023/12/05 04:55:30;;;;;;;26.13;15.75;;;0.10;99.90;;;;;;5008742;28;20553;-65
2023/12/05 04:57:55;;;;;;;25.33;16.95;;;0.20;99.90;;;;;;5012736;28;20068;-65
2023/12/05 05:00:21;;;;;;;21.67;14.65;;;0.10;99.90;;;;;;5009857;28;20069;-65
2023/12/05 05:02:47;;;;;;;32.10;21.27;;;0.20;99.90;;;;;;5010563;28;20037;-65
2023/12/05 05:05:13;;;;;;;28.98;18.55;;;0.20;99.90;;;;;;5009613;28;20659;-66
2023/12/05 05:07:39;;;;;;;26.63;17.90;;;0.10;99.90;;;;;;4999495;28;20441;-65
2023/12/05 05:10:05;;;;;;;33.08;22.85;;;0.10;99.90;;;;;;5019565;28;20033;-65
2023/12/05 05:12:31;;;;;;;22.45;15.05;;;0.10;99.90;;;;;;5012027;28;20057;-66
2023/12/05 05:14:56;;;;;;;22.25;14.40;;;0.10;99.90;;;;;;5010037;28;20025;-65
2023/12/05 05:17:22;;;;;;;22.77;14.18;;;0.20;99.90;;;;;;5013858;28;20091;-66
2023/12/05 05:19:47;;;;;;;18.77;13.40;;;0.20;99.90;;;;;;5015578;28;20509;-66
2023/12/05 05:22:13;;;;;;;23.02;14.68;;;0.30;99.90;;;;;;5011716;28;20045;-65
2023/12/05 05:24:39;;;;;;;22.50;16.05;;;0.30;99.90;;;;;;5005461;28;20030;-66
2023/12/05 05:27:04;;;;;;;36.97;24.73;;;0.30;99.90;;;;;;5010211;28;20030;-66
2023/12/05 05:29:30;;;;;;;24.02;16.38;;;0.30;99.90;;;;;;5010682;28;20068;-66
2023/12/05 05:31:56;;;;;;;40.28;24.70;;;0.30;99.90;;;;;;5014143;28;20407;-65
2023/12/05 05:34:22;;;;;;;28.67;19.13;;;0.20;99.90;;;;;;5008346;28;20030;-66
2023/12/05 05:36:47;;;;;;;24.55;16.67;;;0.20;99.90;;;;;;5014853;28;20037;-66
2023/12/05 05:39:13;;;;;;;21.65;15.55;;;0.10;99.90;;;;;;5009057;28;20034;-66
2023/12/05 05:41:38;;;;;;;21.17;14.70;;;0.10;99.90;;;;;;5008009;28;20030;-66
2023/12/05 05:44:04;;;;;;;24.80;15.13;;;0.10;99.90;;;;;;5013560;28;20038;-66
2023/12/05 05:46:30;;;;;;;21.98;14.57;;;0.10;99.90;;;;;;5011980;28;20531;-66
2023/12/05 05:48:55;;;;;;;22.02;14.32;;;0.00;99.90;;;;;;5014359;28;20060;-66
2023/12/05 05:51:21;;;;;;;26.25;18.25;;;0.10;99.90;;;;;;5013182;28;20061;-66
2023/12/05 05:53:46;;;;;;;41.65;26.85;;;0.10;99.90;;;;;;5012357;28;20038;-66
2023/12/05 05:56:12;;;;;;;30.48;19.85;;;0.10;99.90;;;;;;5014332;28;20073;-66
2023/12/05 05:58:37;;;;;;;24.13;16.45;;;0.10;99.90;;;;;;5008840;28;20258;-66
2023/12/05 06:01:03;;;;;;;22.30;15.00;;;0.10;99.90;;;;;;5010437;28;20037;-66
2023/12/05 06:03:31;;;;;;;35.83;23.45;;;0.10;99.90;;;;;;5009880;28;20029;-65
2023/12/05 06:05:59;;;;;;;24.30;16.35;;;0.20;99.90;;;;;;5012360;28;20041;-66
2023/12/05 06:08:25;;;;;;;28.90;19.45;;;0.20;99.90;;;;;;5006759;28;21400;-71
2023/12/05 06:10:51;;;;;;;27.67;18.58;;;0.20;99.90;;;;;;5014281;28;20021;-65
2023/12/05 06:13:17;;;;;;;23.05;15.63;;;0.30;99.90;;;;;;4998541;28;20319;-66
2023/12/05 06:15:42;;;;;;;23.27;15.98;;;0.40;99.90;;;;;;5005017;28;20037;-66
2023/12/05 06:18:09;;;;;;;22.13;15.80;;;0.40;99.90;;;;;;5000785;28;20084;-66
2023/12/05 06:20:34;;;;;;;21.83;14.60;;;0.30;99.90;;;;;;5004766;28;20250;-67
2023/12/05 06:23:00;;;;;;;19.83;13.55;;;0.30;99.90;;;;;;4999662;28;20030;-68
2023/12/05 06:25:25;;;;;;;22.42;14.52;;;0.30;99.90;;;;;;5003725;28;20470;-67
2023/12/05 06:27:51;;;;;;;23.83;15.65;;;0.30;99.90;;;;;;5000223;28;20033;-68
2023/12/05 06:30:17;;;;;;;21.60;15.05;;;0.30;99.90;;;;;;4998945;28;20029;-69
2023/12/05 06:32:42;;;;;;;20.73;13.38;;;0.40;99.90;;;;;;5004065;28;20129;-67
2023/12/05 06:35:08;;;;;;;23.23;15.40;;;0.40;99.90;;;;;;5005188;28;20581;-68
2023/12/05 06:37:34;;;;;;;23.85;15.30;;;0.40;99.90;;;;;;4996088;28;20141;-67
2023/12/05 06:39:59;;;;;;;22.38;14.98;;;0.40;99.90;;;;;;5002301;28;20100;-68
2023/12/05 06:42:26;;;;;;;20.90;14.48;;;0.40;99.90;;;;;;5004086;28;20025;-68
2023/12/05 06:44:51;;;;;;;23.83;15.15;;;0.40;99.90;;;;;;5005698;28;20068;-67
2023/12/05 06:47:17;;;;;;;21.95;15.73;;;0.40;99.90;;;;;;5004887;28;20045;-67
2023/12/05 06:49:43;;;;;;;22.55;14.70;;;0.50;99.90;;;;;;5011390;28;20044;-67
2023/12/05 06:52:11;;;;;;;23.02;15.52;;;0.50;99.90;;;;;;5004045;28;20034;-67
2023/12/05 06:54:37;;;;;;;24.10;16.15;;;0.50;99.90;;;;;;5012413;28;20514;-65
2023/12/05 06:57:03;;;;;;;20.83;14.43;;;0.40;99.90;;;;;;5012086;28;20037;-65
2023/12/05 06:59:29;;;;;;;24.35;16.05;;;0.40;99.90;;;;;;5012704;28;20049;-65
2023/12/05 07:01:55;;;;;;;20.90;13.80;;;0.40;99.90;;;;;;5003922;28;20033;-65
2023/12/05 07:04:21;;;;;;;23.67;15.15;;;0.40;99.90;;;;;;5002743;28;20025;-65
2023/12/05 07:06:47;;;;;;;20.13;14.00;;;0.40;99.90;;;;;;5010807;28;20041;-65
2023/12/05 07:09:13;;;;;;;20.95;14.32;;;0.40;99.90;;;;;;5012335;28;20105;-65
2023/12/05 07:11:38;;;;;;;19.85;14.10;;;0.40;99.90;;;;;;5012171;28;20026;-65
2023/12/05 07:14:05;;;;;;;20.85;14.48;;;0.40;99.90;;;;;;5011729;28;20060;-67
2023/12/05 07:16:30;;;;;;;20.13;14.02;;;0.50;99.90;;;;;;5010385;28;20113;-66
2023/12/05 07:18:56;;;;;;;22.33;14.93;;;0.50;99.90;;;;;;5010470;28;20086;-66
2023/12/05 07:21:22;;;;;;;21.88;15.40;;;0.50;99.90;;;;;;5003343;28;20057;-66
2023/12/05 07:23:48;;;;;;;22.00;15.55;;;0.50;99.90;;;;;;5007425;28;20038;-66
2023/12/05 07:26:13;;;;;;;18.30;13.45;;;0.60;99.90;;;;;;5013527;28;20073;-65
2023/12/05 07:28:39;;;;;;;20.95;14.60;;;0.60;99.90;;;;;;5014615;28;20109;-65
2023/12/05 07:31:05;;;;;;;22.67;14.93;;;0.60;99.90;;;;;;5007655;28;20793;-65
2023/12/05 07:33:31;;;;;;;28.73;21.65;;;0.60;99.90;;;;;;5009926;28;20584;-65
2023/12/05 07:35:57;;;;;;;24.38;17.27;;;0.60;99.90;;;;;;5008918;28;20116;-65
2023/12/05 07:38:23;;;;;;;21.73;16.20;;;0.60;99.90;;;;;;5017161;28;20032;-65
2023/12/05 07:40:49;;;;;;;20.30;14.05;;;0.70;99.90;;;;;;5006268;28;20625;-65
2023/12/05 07:43:15;;;;;;;21.55;15.25;;;0.70;99.90;;;;;;5010382;28;20058;-68
2023/12/05 07:45:40;;;;;;;22.45;15.18;;;0.70;99.90;;;;;;5010370;28;20036;-67
2023/12/05 07:48:06;;;;;;;21.02;14.98;;;0.70;99.90;;;;;;5010372;28;20037;-66
2023/12/05 07:50:32;;;;;;;23.48;15.85;;;0.70;99.90;;;;;;5010052;28;20530;-66
2023/12/05 07:52:57;;;;;;;23.85;16.08;;;0.70;99.90;;;;;;5014365;28;20386;-66
2023/12/05 07:55:23;;;;;;;25.08;16.88;;;0.80;99.90;;;;;;5009829;28;20037;-66
2023/12/05 07:57:50;;;;;;;22.13;15.23;;;0.80;99.90;;;;;;5015287;28;20041;-66
2023/12/05 08:00:16;;;;;;;24.50;16.15;;;0.80;99.90;;;;;;5011257;28;20109;-66
2023/12/05 08:02:46;;;;;;;25.58;16.27;;;0.80;99.90;;;;;;5014461;28;20029;-66
2023/12/05 08:05:12;;;;;;;21.85;15.38;;;0.80;99.90;;;;;;5016013;28;20458;-66
2023/12/05 08:07:41;;;;;;;24.50;16.65;;;0.80;99.90;;;;;;5016694;28;20044;-65
2023/12/05 08:10:08;;;;;;;22.80;15.85;;;0.80;99.90;;;;;;5016863;28;20403;-66
2023/12/05 08:12:34;;;;;;;28.38;20.85;;;0.90;99.90;;;;;;5012811;28;20473;-66
2023/12/05 08:15:03;;;;;;;33.60;23.73;;;0.90;99.90;;;;;;5009879;28;20021;-67
2023/12/05 08:17:29;;;;;;;44.80;33.83;;;0.90;99.90;;;;;;5012821;28;20224;-66
2023/12/05 08:19:54;;;;;;;115.25;90.00;;;0.90;99.90;;;;;;5010101;28;20042;-67
2023/12/05 08:22:21;;;;;;;47.45;36.03;;;1.00;99.90;;;;;;5017302;28;20239;-66
2023/12/05 08:24:47;;;;;;;21.77;16.02;;;1.00;99.90;;;;;;5011536;28;21604;-66
2023/12/05 08:27:13;;;;;;;27.08;18.80;;;1.00;99.90;;;;;;5017514;28;20121;-66
2023/12/05 08:29:39;;;;;;;23.10;15.93;;;1.10;99.90;;;;;;5016487;28;20390;-66
2023/12/05 08:32:07;;;;;;;19.40;14.93;;;1.10;99.90;;;;;;5015321;28;20025;-66
2023/12/05 08:34:33;;;;;;;23.42;15.38;;;1.10;99.90;;;;;;5014297;28;20096;-67
2023/12/05 08:36:59;;;;;;;22.17;15.20;;;1.20;99.90;;;;;;5013854;28;20081;-67
2023/12/05 08:39:25;;;;;;;19.95;14.18;;;1.20;99.90;;;;;;5008784;28;20031;-66
2023/12/05 08:41:52;;;;;;;46.50;36.88;;;1.20;99.90;;;;;;5015289;28;20083;-67
2023/12/05 08:44:18;;;;;;;30.20;21.80;;;1.10;99.90;;;;;;5011910;28;20065;-66
2023/12/05 08:46:44;;;;;;;24.67;18.90;;;1.10;99.90;;;;;;5010509;28;20045;-66
2023/12/05 08:49:09;;;;;;;24.88;17.02;;;1.10;99.90;;;;;;5010405;28;20044;-66
2023/12/05 08:51:35;;;;;;;25.75;17.13;;;1.20;99.90;;;;;;5009588;28;20031;-66
2023/12/05 08:54:00;;;;;;;26.58;17.65;;;1.20;99.90;;;;;;5006131;28;20091;-66
2023/12/05 08:56:26;;;;;;;29.60;22.00;;;1.20;99.90;;;;;;5011643;28;20573;-66
2023/12/05 08:58:52;;;;;;;31.30;23.33;;;1.30;99.90;;;;;;5014382;28;20031;-66
2023/12/05 09:01:17;;;;;;;24.58;18.52;;;1.30;99.90;;;;;;5013050;28;20033;-66
2023/12/05 09:03:43;;;;;;;21.45;14.80;;;1.30;99.90;;;;;;5010381;28;20036;-66
2023/12/05 09:06:09;;;;;;;21.45;15.95;;;1.20;99.90;;;;;;5012714;28;20155;-67
2023/12/05 09:08:35;;;;;;;21.83;15.18;;;1.30;99.90;;;;;;5017597;28;20528;-66
2023/12/05 09:11:00;;;;;;;27.98;17.85;;;1.30;99.90;;;;;;5012274;28;20061;-66
2023/12/05 09:13:26;;;;;;;41.00;26.42;;;1.30;99.90;;;;;;5019134;28;20056;-66
2023/12/05 09:15:52;;;;;;;53.40;37.10;;;1.30;99.90;;;;;;5011685;28;20026;-66
2023/12/05 09:18:17;;;;;;;36.15;27.25;;;1.30;99.90;;;;;;5013463;28;20091;-66
2023/12/05 09:20:43;;;;;;;22.70;16.48;;;1.40;99.90;;;;;;5009898;28;20482;-67
2023/12/05 09:23:08;;;;;;;21.48;14.80;;;1.50;99.90;;;;;;5009357;28;20113;-66
2023/12/05 09:25:34;;;;;;;25.95;20.05;;;1.60;99.90;;;;;;5010439;28;20026;-67
2023/12/05 09:28:00;;;;;;;23.77;17.10;;;1.60;99.90;;;;;;5003375;28;20176;-67
2023/12/05 09:30:26;;;;;;;20.90;14.57;;;1.60;99.90;;;;;;5010327;28;20183;-67
2023/12/05 09:32:51;;;;;;;22.50;15.13;;;1.60;99.90;;;;;;5014673;28;20040;-68
2023/12/05 09:35:17;;;;;;;19.80;15.13;;;1.60;99.90;;;;;;5014838;28;20490;-67
2023/12/05 09:37:43;;;;;;;19.90;13.90;;;1.60;99.90;;;;;;5012944;28;20401;-67
2023/12/05 09:40:09;;;;;;;21.67;14.60;;;1.60;99.90;;;;;;5010028;28;20029;-67
2023/12/05 09:42:35;;;;;;;19.20;14.05;;;1.50;99.90;;;;;;5015129;28;20116;-66
2023/12/05 09:45:04;;;;;;;26.67;19.42;;;1.60;99.90;;;;;;5011994;28;20026;-66
2023/12/05 09:47:30;;;;;;;20.83;13.90;;;1.70;99.90;;;;;;5012915;28;20056;-67
2023/12/05 09:49:56;;;;;;;20.83;14.18;;;1.80;99.90;;;;;;5014956;28;20356;-67
2023/12/05 09:52:22;;;;;;;23.70;16.33;;;1.80;99.90;;;;;;5014420;28;20496;-66
2023/12/05 09:54:50;;;;;;;25.77;16.75;;;1.90;99.90;;;;;;5014230;28;20041;-65
2023/12/05 09:57:16;;;;;;;21.83;13.90;;;2.00;99.90;;;;;;5008540;28;20045;-67
2023/12/05 09:59:42;;;;;;;19.63;13.02;;;2.00;99.90;;;;;;5009355;28;20029;-68
2023/12/05 10:02:09;;;;;;;18.98;12.32;;;2.10;99.90;;;;;;5011204;28;20157;-67
2023/12/05 10:04:42;;;;;;;20.38;12.48;;;2.20;99.90;;;;;;5009419;28;20108;-67
2023/12/05 10:07:13;;;;;;;21.55;14.27;;;2.10;99.90;;;;;;5010150;28;20517;-68
2023/12/05 10:09:42;;;;;;;18.88;13.63;;;2.10;99.90;;;;;;5019234;28;20095;-67
2023/12/05 10:12:09;;;;;;;19.08;14.68;;;2.10;99.90;;;;;;5013409;28;20059;-67
2023/12/05 10:14:35;;;;;;;22.25;15.55;;;2.10;99.90;;;;;;5011299;28;20025;-66
2023/12/05 10:17:02;;;;;;;19.42;14.02;;;2.00;99.90;;;;;;5012216;28;20021;-67
2023/12/05 10:19:30;;;;;;;19.52;13.43;;;2.10;99.90;;;;;;5008178;28;20029;-67
2023/12/05 10:21:57;;;;;;;20.25;14.05;;;2.10;99.90;;;;;;5012933;28;20142;-66
2023/12/05 10:24:22;;;;;;;19.02;14.35;;;2.00;99.90;;;;;;5010923;28;20067;-67
2023/12/05 10:26:49;;;;;;;78.95;42.08;;;2.00;99.90;;;;;;5013000;28;20044;-67
2023/12/05 10:29:16;;;;;;;55.10;32.53;;;2.10;99.90;;;;;;5013673;28;20033;-67
2023/12/05 10:31:42;;;;;;;225.95;127.72;;;2.00;99.90;;;;;;5008338;28;20348;-66
2023/12/05 10:34:08;;;;;;;44.67;30.65;;;2.00;99.90;;;;;;5006962;28;20099;-66
2023/12/05 10:36:36;;;;;;;30.17;21.35;;;2.00;99.90;;;;;;5004060;28;20985;-66
2023/12/05 10:39:03;;;;;;;93.25;52.72;;;2.00;99.90;;;;;;5013100;28;20026;-66
2023/12/05 10:41:29;;;;;;;32.53;22.08;;;2.00;99.90;;;;;;5013293;28;20018;-67
2023/12/05 10:43:55;;;;;;;27.45;21.20;;;2.20;99.90;;;;;;5012898;28;20060;-67
2023/12/05 10:46:23;;;;;;;24.77;17.85;;;2.20;99.90;;;;;;5014612;28;20419;-67
2023/12/05 10:48:49;;;;;;;19.42;13.27;;;2.20;99.90;;;;;;5015494;28;20141;-67
2023/12/05 10:51:15;;;;;;;20.25;13.95;;;2.20;99.90;;;;;;5013658;28;20367;-67
2023/12/05 10:53:41;;;;;;;19.48;13.70;;;2.10;99.90;;;;;;5009187;28;20495;-66
2023/12/05 10:56:31;;;;;;;24.23;14.55;;;2.10;99.90;;;;;;5013948;28;20029;-67
2023/12/05 10:58:58;;;;;;;19.35;14.00;;;2.10;99.90;;;;;;5016704;28;20037;-67
2023/12/05 11:01:26;;;;;;;23.30;14.43;;;2.20;99.90;;;;;;5014072;28;20072;-67
2023/12/05 11:03:52;;;;;;;18.90;13.52;;;2.20;99.90;;;;;;5012089;28;20021;-67
2023/12/05 11:06:17;;;;;;;18.65;13.30;;;2.20;99.90;;;;;;5018135;28;20032;-67
2023/12/05 11:08:43;;;;;;;18.60;12.70;;;2.20;99.90;;;;;;5013735;28;20083;-68
2023/12/05 11:11:11;;;;;;;18.98;13.07;;;2.20;99.90;;;;;;5012587;28;20470;-67
2023/12/05 11:13:38;;;;;;;20.17;13.93;;;2.30;99.90;;;;;;5009917;28;20026;-67
2023/12/05 11:16:16;;;;;;;20.02;13.50;;;2.30;99.90;;;;;;5010227;28;20033;-67
2023/12/05 11:18:44;;;;;;;19.35;13.38;;;2.30;99.90;;;;;;5011555;28;20124;-67
2023/12/05 11:21:25;;;;;;;19.23;14.18;;;2.10;99.90;;;;;;5016094;28;20030;-67
2023/12/05 11:24:20;;;;;;;17.63;12.60;;;2.10;99.90;;;;;;5014025;28;20384;-67
2023/12/05 11:27:03;;;;;;;19.70;13.85;;;2.20;99.90;;;;;;5015731;28;20040;-67
2023/12/05 11:29:55;;;;;;;20.95;13.73;;;2.30;99.90;;;;;;5009491;28;20055;-67
2023/12/05 11:33:01;;;;;;;23.30;16.88;;;2.20;99.90;;;;;;5017127;28;20508;-67
2023/12/05 11:35:43;;;;;;;19.80;14.32;;;2.20;99.90;;;;;;5011783;28;20028;-67
2023/12/05 11:38:15;;;;;;;18.38;13.07;;;2.30;99.90;;;;;;5014701;28;20369;-67
2023/12/05 11:40:40;;;;;;;;;;;2.30;99.90;;;;;;5014209;28;20052;-67
2023/12/05 11:43:13;;;;;;;20.73;14.70;;;2.40;99.90;;;;;;5013793;28;19913;-67
2023/12/05 11:45:42;;;;;;;21.63;16.13;;;2.40;99.90;;;;;;5014342;28;20032;-67
2023/12/05 11:48:13;;;;;;;21.33;14.90;;;2.40;99.90;;;;;;5016858;28;20561;-67
2023/12/05 11:50:47;;;;;;;18.10;13.07;;;2.30;99.90;;;;;;5008659;28;20128;-67
2023/12/05 11:53:15;;;;;;;18.95;13.50;;;2.30;99.90;;;;;;5020223;28;20029;-67
2023/12/05 11:55:47;;;;;;;19.58;13.48;;;2.20;99.90;;;;;;5018131;28;20334;-67
2023/12/05 11:58:32;;;;;;;20.27;14.68;;;2.20;99.90;;;;;;5012558;28;20112;-67
2023/12/05 12:01:06;;;;;;;19.23;13.63;;;2.20;99.90;;;;;;5015532;28;20088;-67
2023/12/05 12:03:46;;;;;;;16.85;12.90;;;2.10;99.90;;;;;;5021017;28;20434;-67
2023/12/05 12:06:14;;;;;;;18.48;13.57;;;2.10;99.90;;;;;;5019426;28;20037;-67
2023/12/05 12:08:43;;;;;;;17.90;13.05;;;2.10;99.90;;;;;;5010665;28;20021;-67
2023/12/05 12:11:09;;;;;;;20.48;13.18;;;2.00;99.90;;;;;;5017369;28;20163;-67
2023/12/05 12:13:35;;;;;;;24.60;19.30;;;2.10;99.90;;;;;;5013272;28;20033;-67
2023/12/05 12:16:01;;;;;;;27.00;19.30;;;2.20;99.90;;;;;;5015808;28;20571;-67
2023/12/05 12:18:27;;;;;;;23.08;16.90;;;2.20;99.90;;;;;;5019336;28;20033;-66
2023/12/05 12:20:52;;;;;;;18.13;13.10;;;2.20;99.90;;;;;;5011882;28;20070;-67
2023/12/05 12:23:19;;;;;;;20.55;13.43;;;2.20;99.90;;;;;;5018213;28;20030;-67
2023/12/05 12:26:09;;;;;;;18.33;12.75;;;2.20;99.90;;;;;;5010627;28;20274;-68
2023/12/05 12:28:34;;;;;;;21.67;13.63;;;2.20;99.90;;;;;;5008433;28;20579;-67
2023/12/05 12:31:00;;;;;;;20.50;14.90;;;2.30;99.90;;;;;;5007080;28;20038;-67
2023/12/05 12:33:40;;;;;;;27.15;20.70;;;2.30;99.90;;;;;;5014602;28;20029;-67
2023/12/05 12:36:11;;;;;;;19.95;14.10;;;2.40;99.90;;;;;;5011571;28;20036;-67